Time;durP1;ratioP1;P1;durP2;ratioP2;P2;SDS_P1;SDS_P2;PMS_P1;PMS_P2;Temp;Humidity;BMP_temperature;BMP_pressure;BME280_temperature;BME280_humidity;BME280_pressure;Samples;Min_cycle;Max_cycle;Signal;HPM_P1;HPM_P2
2021/08/06 00:00:00;;;;;;;1.70;1.60;;;;;;;16.66;71.25;101561.66;5957304;30;20199;-74
2021/08/06 00:03:07;;;;;;;1.70;1.60;;;;;;;16.67;71.06;101554.19;5956707;30;20210;-74
2021/08/06 00:06:17;;;;;;;2.15;1.83;;;;;;;16.68;70.95;101555.88;5956735;30;20250;-74
2021/08/06 00:09:21;;;;;;;1.70;1.60;;;;;;;16.57;72.83;101559.47;5956385;29;20481;-75
2021/08/06 00:12:25;;;;;;;1.42;1.42;;;;;;;16.56;73.14;101541.28;5957290;29;20257;-75
2021/08/06 00:15:30;;;;;;;1.77;1.67;;;;;;;16.51;74.07;101536.44;5957181;30;20194;-75
2021/08/06 00:18:34;;;;;;;4.05;1.60;;;;;;;16.53;73.37;101539.00;5957406;30;20194;-75
2021/08/06 00:21:38;;;;;;;1.60;1.50;;;;;;;16.56;72.73;101541.28;5956976;30;20260;-74
2021/08/06 00:24:43;;;;;;;1.70;1.67;;;;;;;16.57;73.14;101531.91;5956093;30;20504;-74
2021/08/06 00:27:47;;;;;;;2.60;1.75;;;;;;;16.56;72.95;101530.25;5956109;30;20385;-75
2021/08/06 00:30:53;;;;;;;1.60;1.55;;;;;;;16.42;74.79;101528.78;5956919;30;20283;-75
2021/08/06 00:33:58;;;;;;;1.60;1.60;;;;;;;16.50;73.82;101547.69;5955526;29;20209;-75
2021/08/06 00:37:06;;;;;;;1.92;1.92;;;;;;;16.40;75.76;101531.78;5956875;30;20209;-75
2021/08/06 00:40:16;;;;;;;1.70;1.60;;;;;;;16.42;75.22;101534.28;5958717;29;20214;-75
2021/08/06 00:43:22;;;;;;;1.65;1.60;;;;;;;16.42;76.06;101528.78;5960017;29;20209;-75
2021/08/06 00:46:28;;;;;;;1.75;1.67;;;;;;;16.41;75.63;101532.63;5959184;29;20297;-75
2021/08/06 00:49:36;;;;;;;1.80;1.70;;;;;;;16.43;74.97;101524.94;5959509;29;20365;-75
2021/08/06 00:52:43;;;;;;;1.42;1.42;;;;;;;16.40;75.19;101530.94;5958768;29;20241;-75
2021/08/06 00:55:52;;;;;;;1.50;1.50;;;;;;;16.30;75.94;101537.03;5958928;30;20252;-75
2021/08/06 00:58:59;;;;;;;2.72;1.67;;;;;;;16.24;76.16;101538.81;5958957;29;20315;-75
2021/08/06 01:02:09;;;;;;;1.60;1.60;;;;;;;16.31;76.71;101529.63;5959654;29;20209;-74
2021/08/06 01:05:19;;;;;;;1.98;1.85;;;;;;;16.25;76.06;101545.19;5958481;30;20327;-75
2021/08/06 01:08:29;;;;;;;2.67;1.85;;;;;;;16.09;77.94;101546.69;5958543;30;20233;-75
2021/08/06 01:11:36;;;;;;;2.47;1.83;;;;;;;16.19;76.86;101543.34;5959453;29;20209;-75
2021/08/06 01:14:43;;;;;;;1.83;1.73;;;;;;;16.14;77.33;101541.31;5958118;30;20528;-75
2021/08/06 01:18:00;;;;;;;1.48;1.48;;;;;;;16.17;77.23;101548.28;5959483;30;20327;-74
2021/08/06 01:21:09;;;;;;;1.70;1.60;;;;;;;16.15;77.55;101551.25;5958790;30;20210;-75
2021/08/06 01:24:18;;;;;;;1.75;1.63;;;;;;;16.13;77.40;101558.91;5959233;29;20209;-75
2021/08/06 01:27:27;;;;;;;1.80;1.80;;;;;;;16.09;78.28;101546.69;5959384;29;20233;-75
2021/08/06 01:30:35;;;;;;;1.70;1.60;;;;;;;16.11;77.88;101555.56;5959337;29;20272;-75
2021/08/06 01:33:43;;;;;;;1.50;1.50;;;;;;;16.13;77.47;101558.91;5958670;29;20523;-75
2021/08/06 01:36:55;;;;;;;1.50;1.50;;;;;;;16.05;78.39;101550.97;5958610;29;20213;-75
2021/08/06 01:40:12;;;;;;;1.85;1.60;;;;;;;16.06;77.34;101555.44;5959227;29;20209;-75
2021/08/06 01:43:32;;;;;;;1.80;1.80;;;;;;;16.07;77.12;101554.38;5958878;29;20217;-75
2021/08/06 01:46:43;;;;;;;1.88;1.77;;;;;;;15.86;78.57;101554.91;5958416;30;20233;-75
2021/08/06 01:49:53;;;;;;;1.85;1.75;;;;;;;15.95;78.24;101558.97;5957125;29;20251;-75
2021/08/06 01:53:01;;;;;;;1.70;1.70;;;;;;;15.87;78.36;101559.31;5957183;29;20277;-75
2021/08/06 01:56:21;;;;;;;1.83;1.70;;;;;;;15.85;78.30;101561.47;5958850;29;20210;-75
2021/08/06 01:59:31;;;;;;;2.65;2.08;;;;;;;15.88;78.76;101566.50;5958604;29;20216;-75
2021/08/06 02:02:38;;;;;;;1.98;1.70;;;;;;;15.94;78.03;101560.06;5957692;29;20493;-75
2021/08/06 02:05:43;;;;;;;4.38;1.60;;;;;;;15.91;78.30;101563.28;5957526;29;20252;-75
2021/08/06 02:08:55;;;;;;;1.80;1.80;;;;;;;15.91;78.26;101576.19;5957859;29;20540;-75
2021/08/06 02:12:05;;;;;;;4.22;1.73;;;;;;;15.80;79.36;101586.09;5957334;30;20251;-75
2021/08/06 02:15:24;;;;;;;1.75;1.73;;;;;;;15.78;79.03;101577.22;5958099;30;20214;-75
2021/08/06 02:18:32;;;;;;;1.95;1.85;;;;;;;15.74;79.98;101572.44;5958150;29;20220;-75
2021/08/06 02:21:51;;;;;;;1.80;1.70;;;;;;;15.80;79.28;101564.06;5957113;30;20210;-75
2021/08/06 02:24:58;;;;;;;1.90;1.90;;;;;;;15.77;79.31;101567.28;5957067;30;20216;-75
2021/08/06 02:28:07;;;;;;;1.85;1.85;;;;;;;15.77;80.17;101564.53;5957420;29;20452;-75
2021/08/06 02:31:18;;;;;;;1.65;1.63;;;;;;;15.75;80.51;101561.19;5957791;30;20285;-75
2021/08/06 02:34:27;;;;;;;1.60;1.60;;;;;;;15.71;80.66;101565.50;5957105;29;20505;-75
2021/08/06 02:37:36;;;;;;;1.48;1.48;;;;;;;15.68;80.93;101571.44;5957677;30;20319;-75
2021/08/06 02:40:44;;;;;;;1.85;1.85;;;;;;;15.74;80.32;101572.44;5957732;30;20240;-75
2021/08/06 02:43:48;;;;;;;1.58;1.58;;;;;;;15.73;79.88;101579.84;5957499;30;20194;-75
2021/08/06 02:46:53;;;;;;;3.80;1.95;;;;;;;15.81;79.60;101581.44;5958076;29;20322;-75
2021/08/06 02:50:00;;;;;;;1.70;1.70;;;;;;;15.78;79.67;101577.22;5958764;30;20193;-75
2021/08/06 02:53:06;;;;;;;1.80;1.80;;;;;;;15.76;79.95;101573.88;5956728;30;20215;-74
2021/08/06 02:56:12;;;;;;;2.00;2.00;;;;;;;15.78;79.76;101584.63;5956637;30;20225;-75
2021/08/06 02:59:18;;;;;;;1.77;1.77;;;;;;;15.71;80.84;101582.00;5957098;30;20213;-76
2021/08/06 03:02:25;;;;;;;1.90;1.80;;;;;;;15.71;80.46;101576.50;5956397;29;20259;-75
2021/08/06 03:05:30;;;;;;;1.60;1.60;;;;;;;15.69;80.86;101578.63;5956818;30;20260;-75
2021/08/06 03:08:36;;;;;;;2.35;2.10;;;;;;;15.70;80.59;101566.53;5957037;30;20237;-75
2021/08/06 03:11:42;;;;;;;1.45;1.45;;;;;;;15.73;80.55;101579.84;5956756;29;20426;-75
2021/08/06 03:14:46;;;;;;;1.80;1.70;;;;;;;15.73;80.62;101573.50;5956912;30;20194;-75
2021/08/06 03:17:54;;;;;;;3.03;1.70;;;;;;;15.67;81.88;101567.00;5956720;29;20225;-75
2021/08/06 03:21:00;;;;;;;2.58;1.73;;;;;;;15.68;81.46;101571.44;5956547;30;20217;-75
2021/08/06 03:24:09;;;;;;;1.90;1.90;;;;;;;15.73;82.02;101563.34;5956138;29;20415;-75
2021/08/06 03:27:17;;;;;;;1.90;1.90;;;;;;;15.74;82.20;101569.69;5956659;30;20193;-75
2021/08/06 03:30:24;;;;;;;1.85;1.85;;;;;;;15.75;81.68;101572.19;5956529;29;20218;-75
2021/08/06 03:33:30;;;;;;;2.08;1.98;;;;;;;15.74;81.72;101576.00;5955981;30;20244;-75
2021/08/06 03:36:37;;;;;;;2.00;1.90;;;;;;;15.77;81.99;101583.78;5955857;30;20374;-75
2021/08/06 03:39:43;;;;;;;2.00;2.00;;;;;;;15.78;82.13;101577.22;5956626;29;20217;-76
2021/08/06 03:42:48;;;;;;;1.80;1.80;;;;;;;15.79;82.34;101573.41;5956066;29;20531;-76
2021/08/06 03:45:55;;;;;;;1.98;1.98;;;;;;;15.76;82.77;101562.88;5956905;30;20217;-75
2021/08/06 03:49:01;;;;;;;1.80;1.80;;;;;;;15.79;82.82;101573.41;5956265;29;20402;-75
2021/08/06 03:52:06;;;;;;;1.77;1.77;;;;;;;15.81;83.29;101585.03;5956832;29;20213;-76
2021/08/06 03:55:12;;;;;;;1.73;1.73;;;;;;;15.89;82.87;101579.19;5955731;30;20209;-76
2021/08/06 03:58:16;;;;;;;1.77;1.77;;;;;;;15.87;82.82;101569.50;5956124;29;20244;-75
2021/08/06 04:01:20;;;;;;;1.67;1.67;;;;;;;15.97;82.85;101578.84;5957793;29;20256;-76
2021/08/06 04:04:27;;;;;;;1.77;1.77;;;;;;;15.96;83.64;101590.94;5955355;30;20281;-76
2021/08/06 04:07:31;;;;;;;1.80;1.80;;;;;;;15.88;84.03;101577.50;5956673;29;20273;-75
2021/08/06 04:10:38;;;;;;;1.80;1.80;;;;;;;15.88;84.46;101583.00;5957655;30;20204;-75
2021/08/06 04:13:44;;;;;;;1.70;1.70;;;;;;;15.96;84.39;101579.94;5957515;29;20266;-75
2021/08/06 04:16:48;;;;;;;2.08;1.98;;;;;;;16.00;84.24;101581.13;5960552;29;20276;-75
2021/08/06 04:19:54;;;;;;;2.20;2.00;;;;;;;16.06;84.25;101580.19;5961372;30;20198;-75
2021/08/06 04:22:59;;;;;;;2.20;2.10;;;;;;;16.10;84.07;101581.38;5959675;30;20241;-75
2021/08/06 04:26:05;;;;;;;2.00;2.00;;;;;;;16.02;85.01;101570.72;5959605;29;20298;-75
2021/08/06 04:29:10;;;;;;;1.90;1.90;;;;;;;16.04;85.05;101582.34;5960147;30;20304;-76
2021/08/06 04:32:14;;;;;;;1.88;1.88;;;;;;;16.06;85.10;101585.69;5959805;29;20560;-75
2021/08/06 04:35:20;;;;;;;2.00;2.00;;;;;;;16.07;85.52;101583.78;5961197;30;20200;-76
2021/08/06 04:38:25;;;;;;;1.95;1.90;;;;;;;16.16;84.75;101585.13;5960371;29;20220;-76
2021/08/06 04:41:30;;;;;;;2.05;2.05;;;;;;;16.09;85.85;101574.22;5960191;30;20254;-76
2021/08/06 04:44:36;;;;;;;1.88;1.88;;;;;;;16.10;86.12;101581.38;5959139;29;20209;-76
2021/08/06 04:47:43;;;;;;;2.03;1.80;;;;;;;16.11;86.69;101577.56;5959308;30;20238;-76
2021/08/06 04:50:50;;;;;;;1.90;1.90;;;;;;;16.29;85.75;101580.25;5959887;29;20276;-76
2021/08/06 04:53:54;;;;;;;2.08;2.03;;;;;;;16.23;86.09;101574.84;5959491;29;20213;-76
2021/08/06 04:57:00;;;;;;;1.90;1.90;;;;;;;16.32;85.37;101578.94;5959445;29;20491;-76
2021/08/06 05:00:07;;;;;;;2.03;2.03;;;;;;;16.39;85.41;101578.81;5959832;30;20213;-76
2021/08/06 05:03:14;;;;;;;4.32;1.88;;;;;;;16.37;85.92;101581.81;5959094;30;20346;-76
2021/08/06 05:06:25;;;;;;;2.00;2.00;;;;;;;16.39;86.35;101570.56;5958588;29;20355;-76
2021/08/06 05:09:30;;;;;;;1.70;1.70;;;;;;;16.51;85.52;101563.97;5958789;29;20419;-76
2021/08/06 05:12:34;;;;;;;1.85;1.75;;;;;;;16.62;85.17;101562.34;5959478;30;20197;-76
2021/08/06 05:15:38;;;;;;;1.77;1.77;;;;;;;16.60;85.07;101553.47;5958871;29;20247;-76
2021/08/06 05:18:45;;;;;;;3.25;1.52;;;;;;;16.64;85.25;101554.69;5958658;30;20213;-77
2021/08/06 05:21:51;;;;;;;1.52;1.52;;;;;;;16.68;84.93;101544.88;5959725;30;20526;-76
2021/08/06 05:24:55;;;;;;;1.65;1.65;;;;;;;16.80;84.38;101542.94;5960003;29;20200;-76
2021/08/06 05:28:05;;;;;;;3.63;3.47;;;;;;;16.81;84.70;101539.94;5958508;29;20276;-76
2021/08/06 05:31:10;;;;;;;3.08;2.85;;;;;;;16.96;83.66;101530.34;5958786;29;20605;-76
2021/08/06 05:34:14;;;;;;;2.00;2.00;;;;;;;16.94;83.78;101536.09;5960033;30;20194;-76
2021/08/06 05:37:22;;;;;;;2.05;2.03;;;;;;;17.04;83.58;101528.03;5957898;30;20531;-76
2021/08/06 05:40:26;;;;;;;1.73;1.63;;;;;;;17.06;83.09;101525.88;5958150;29;20214;-76
2021/08/06 05:43:32;;;;;;;1.90;1.75;;;;;;;17.15;82.52;101524.44;5957923;30;20250;-77
2021/08/06 05:46:39;;;;;;;1.25;1.25;;;;;;;17.20;82.33;101521.78;5960079;29;20199;-76
2021/08/06 05:49:43;;;;;;;1.80;1.70;;;;;;;17.25;82.10;101518.28;5958359;29;20241;-77
2021/08/06 05:52:51;;;;;;;2.17;1.48;;;;;;;17.38;81.10;101523.53;5958198;29;20217;-77
2021/08/06 05:55:57;;;;;;;1.60;1.60;;;;;;;17.48;80.77;101520.97;5958354;30;20209;-76
2021/08/06 05:59:03;;;;;;;1.50;1.50;;;;;;;17.59;80.03;101530.31;5958084;29;20220;-76
2021/08/06 06:02:08;;;;;;;1.85;1.85;;;;;;;17.66;79.75;101522.72;5958132;29;20209;-77
2021/08/06 06:05:28;;;;;;;1.63;1.52;;;;;;;17.80;78.47;101526.81;5957526;29;20245;-76
2021/08/06 06:08:34;;;;;;;1.40;1.40;;;;;;;17.95;78.24;101518.84;5958072;29;20210;-76
2021/08/06 06:11:39;;;;;;;1.30;1.30;;;;;;;18.04;76.58;101517.34;5957965;29;20237;-76
2021/08/06 06:14:43;;;;;;;1.20;1.20;;;;;;;18.22;76.13;101524.53;5956995;30;20216;-76
2021/08/06 06:17:48;;;;;;;1.35;1.35;;;;;;;18.35;75.61;101519.53;5957686;29;20209;-76
2021/08/06 06:20:53;;;;;;;1.40;1.40;;;;;;;18.47;73.50;101505.63;5957150;29;20330;-76
2021/08/06 06:24:00;;;;;;;1.50;1.50;;;;;;;18.59;74.12;101509.97;5958365;30;20194;-76
2021/08/06 06:27:06;;;;;;;1.40;1.40;;;;;;;18.77;73.02;101494.19;5958841;30;20194;-76
2021/08/06 06:30:12;;;;;;;1.17;1.17;;;;;;;18.91;72.32;101495.50;5957371;29;20240;-76
2021/08/06 06:33:18;;;;;;;2.20;1.25;;;;;;;19.01;71.40;101479.88;5956847;29;20240;-76
2021/08/06 06:36:26;;;;;;;1.40;1.30;;;;;;;19.20;69.73;101484.00;5957006;29;20209;-76
2021/08/06 06:39:35;;;;;;;1.00;1.00;;;;;;;19.30;69.93;101489.66;5957317;30;20280;-77
2021/08/06 06:42:39;;;;;;;1.20;1.20;;;;;;;19.46;68.85;101487.09;5957849;29;20210;-76
2021/08/06 06:45:46;;;;;;;4.05;1.35;;;;;;;19.62;65.06;101491.69;5957554;29;20227;-76
2021/08/06 06:48:50;;;;;;;1.20;1.20;;;;;;;19.71;65.81;101484.56;5957682;30;20229;-76
2021/08/06 06:51:57;;;;;;;1.73;1.20;;;;;;;19.79;64.24;101487.72;5958071;30;20224;-76
2021/08/06 06:55:03;;;;;;;1.20;1.10;;;;;;;19.91;62.93;101491.13;5957224;30;20257;-76
2021/08/06 06:58:11;;;;;;;2.88;1.30;;;;;;;20.06;58.26;101486.81;5956469;29;20240;-76
2021/08/06 07:01:16;;;;;;;3.03;1.30;;;;;;;20.28;56.68;101490.38;5956503;29;20213;-76
2021/08/06 07:04:20;;;;;;;2.40;1.10;;;;;;;20.41;55.43;101495.47;5955751;29;20260;-76
2021/08/06 07:07:25;;;;;;;1.20;1.20;;;;;;;20.43;54.67;101493.25;5956668;29;20210;-76
2021/08/06 07:10:31;;;;;;;1.80;1.30;;;;;;;20.46;54.23;101495.50;5955757;30;20500;-76
2021/08/06 07:13:36;;;;;;;1.10;1.10;;;;;;;20.58;54.04;101501.66;5957078;29;20251;-76
2021/08/06 07:16:41;;;;;;;2.20;1.23;;;;;;;20.56;52.97;101498.34;5956682;29;20537;-76
2021/08/06 07:19:46;;;;;;;10.65;1.20;;;;;;;20.44;53.27;101500.47;5956841;29;20264;-76
2021/08/06 07:22:51;;;;;;;1.00;1.00;;;;;;;20.44;52.68;101509.59;5956706;30;20209;-76
2021/08/06 07:25:57;;;;;;;2.40;1.05;;;;;;;20.50;51.34;101510.47;5955603;29;20324;-76
2021/08/06 07:29:02;;;;;;;1.10;1.10;;;;;;;20.53;50.05;101505.25;5955959;29;20278;-76
2021/08/06 07:32:07;;;;;;;1.00;1.00;;;;;;;20.65;50.16;101507.81;5957225;30;20217;-76
2021/08/06 07:35:14;;;;;;;1.20;1.20;;;;;;;20.71;50.68;101512.28;5956380;30;20193;-76
2021/08/06 07:38:18;;;;;;;2.28;1.10;;;;;;;20.80;49.97;101494.03;5956312;30;20259;-76
2021/08/06 07:41:24;;;;;;;10.00;1.30;;;;;;;20.70;49.10;101498.72;5956376;30;20262;-76
2021/08/06 07:44:29;;;;;;;1.05;1.05;;;;;;;20.67;49.23;101500.09;5955869;30;20210;-75
2021/08/06 07:47:34;;;;;;;1.30;1.20;;;;;;;20.82;49.07;101491.84;5956108;29;20261;-75
2021/08/06 07:50:39;;;;;;;1.10;1.10;;;;;;;20.75;47.22;101491.22;5960754;29;20236;-76
2021/08/06 07:53:43;;;;;;;2.00;1.10;;;;;;;20.85;48.40;101502.38;5960967;29;20209;-75
2021/08/06 07:56:49;;;;;;;0.98;0.98;;;;;;;20.82;47.83;101500.16;5960574;29;20528;-75
2021/08/06 07:59:55;;;;;;;1.73;1.33;;;;;;;20.80;47.12;101498.78;5961818;30;20210;-76
2021/08/06 08:03:00;;;;;;;3.22;1.10;;;;;;;20.83;46.68;101510.13;5960115;29;20215;-76
2021/08/06 08:06:12;;;;;;;1.65;1.20;;;;;;;20.86;46.66;101498.50;5959749;30;20524;-74
2021/08/06 08:09:17;;;;;;;0.95;0.95;;;;;;;20.99;47.31;101498.03;5959512;29;20210;-75
2021/08/06 08:12:27;;;;;;;1.10;1.10;;;;;;;21.08;47.44;101506.72;5961231;30;20225;-77
2021/08/06 08:15:31;;;;;;;1.20;1.13;;;;;;;21.17;47.75;101505.91;5961528;30;20296;-75
2021/08/06 08:18:39;;;;;;;1.10;1.10;;;;;;;21.27;47.45;101493.16;5960235;30;20201;-77
2021/08/06 08:21:44;;;;;;;1.17;1.10;;;;;;;21.38;46.34;101501.28;5959469;29;20388;-76
2021/08/06 08:24:49;;;;;;;1.23;1.17;;;;;;;21.37;47.08;101490.44;5958985;29;20210;-76
2021/08/06 08:27:55;;;;;;;0.93;0.93;;;;;;;21.36;48.42;101491.56;5959373;29;20508;-76
2021/08/06 08:30:59;;;;;;;1.15;1.15;;;;;;;21.26;49.79;101492.38;5959689;29;20251;-76
2021/08/06 08:34:03;;;;;;;1.00;1.00;;;;;;;21.14;49.31;101481.47;5959961;29;20209;-76
2021/08/06 08:37:09;;;;;;;1.38;1.25;;;;;;;20.96;48.84;101493.00;5959930;29;20209;-76
2021/08/06 08:40:13;;;;;;;1.30;1.20;;;;;;;20.98;48.95;101484.44;5960966;30;20266;-76
2021/08/06 08:43:22;;;;;;;1.30;1.30;;;;;;;20.71;50.55;101484.56;5958817;30;20305;-76
2021/08/06 08:46:29;;;;;;;1.20;1.20;;;;;;;20.79;51.13;101491.53;5959212;29;20210;-75
2021/08/06 08:49:36;;;;;;;2.08;1.27;;;;;;;20.68;51.99;101485.09;5959102;29;20642;-77
2021/08/06 08:52:41;;;;;;;1.00;1.00;;;;;;;20.68;53.07;101482.31;5959537;29;20306;-76
2021/08/06 08:55:48;;;;;;;0.98;0.98;;;;;;;20.69;51.85;101478.47;5958535;30;20251;-75
2021/08/06 08:58:56;;;;;;;1.13;1.13;;;;;;;20.74;51.97;101495.13;5959129;30;20213;-77
2021/08/06 09:02:03;;;;;;;1.23;1.10;;;;;;;20.72;50.27;101486.25;5959654;29;20259;-75
2021/08/06 09:05:12;;;;;;;1.10;1.10;;;;;;;20.68;50.37;101489.81;5959063;30;20251;-75
2021/08/06 09:08:22;;;;;;;1.27;1.10;;;;;;;20.61;51.38;101490.06;5959007;29;20241;-75
2021/08/06 09:11:46;;;;;;;1.30;1.30;;;;;;;20.57;52.15;101488.91;5958998;29;20233;-76
2021/08/06 09:15:15;;;;;;;0.90;0.90;;;;;;;20.57;51.99;101477.81;5959862;29;20221;-76
2021/08/06 09:18:31;;;;;;;1.55;1.05;;;;;;;20.57;52.86;101477.81;5960477;30;20274;-75
2021/08/06 09:21:35;;;;;;;0.90;0.90;;;;;;;20.62;51.97;101475.06;5959998;30;20310;-76
2021/08/06 09:25:08;;;;;;;1.17;1.17;;;;;;;20.71;50.32;101478.19;5960044;30;20201;-76
2021/08/06 09:28:15;;;;;;;1.02;1.02;;;;;;;20.81;49.94;101467.13;5958255;29;20209;-75
2021/08/06 09:31:21;;;;;;;1.00;1.00;;;;;;;20.85;50.40;101469.09;5959414;30;20222;-76
2021/08/06 09:34:27;;;;;;;1.10;1.10;;;;;;;20.81;49.60;101456.88;5958453;30;20427;-75
2021/08/06 09:37:37;;;;;;;1.23;1.05;;;;;;;20.85;48.94;101457.19;5958058;29;20213;-76
2021/08/06 09:40:43;;;;;;;1.38;0.82;;;;;;;20.86;49.53;101465.22;5959544;30;20265;-76
2021/08/06 09:43:48;;;;;;;1.10;1.10;;;;;;;20.78;49.43;101468.50;5957964;30;20395;-76
2021/08/06 09:46:54;;;;;;;1.00;1.00;;;;;;;20.77;49.28;101460.47;5959830;30;20197;-76
2021/08/06 09:50:01;;;;;;;1.00;1.00;;;;;;;20.81;49.18;101461.59;5959496;30;20193;-76
2021/08/06 09:53:06;;;;;;;1.00;1.00;;;;;;;20.70;49.27;101452.38;5958394;30;20222;-76
2021/08/06 09:56:16;;;;;;;1.08;1.08;;;;;;;20.65;48.95;101459.88;5959295;30;20193;-76
2021/08/06 09:59:30;;;;;;;1.13;1.13;;;;;;;20.57;47.28;101458.41;5958208;30;20424;-76
2021/08/06 10:02:40;;;;;;;1.20;1.20;;;;;;;20.68;47.81;101457.38;5958481;29;20209;-76
2021/08/06 10:05:45;;;;;;;1.15;1.13;;;;;;;20.65;47.50;101457.91;5958929;30;20229;-76
2021/08/06 10:08:49;;;;;;;0.90;0.90;;;;;;;20.64;47.10;101464.56;5958409;30;20243;-76
2021/08/06 10:11:53;;;;;;;0.90;0.90;;;;;;;20.65;46.48;101457.91;5956933;29;20221;-76
2021/08/06 10:14:57;;;;;;;0.82;0.82;;;;;;;20.59;46.21;101453.44;5959451;29;20193;-76
2021/08/06 10:18:03;;;;;;;1.15;1.15;;;;;;;20.59;46.36;101470.09;5958784;30;20200;-75
2021/08/06 10:21:08;;;;;;;1.00;1.00;;;;;;;20.53;46.39;101454.50;5959005;30;20194;-75
2021/08/06 10:24:15;;;;;;;1.65;1.08;;;;;;;20.60;46.48;101455.94;5958818;30;20311;-76
2021/08/06 10:27:22;;;;;;;1.17;1.17;;;;;;;20.60;46.37;101466.19;5958027;30;20235;-75
2021/08/06 10:30:30;;;;;;;1.25;1.20;;;;;;;20.68;45.34;101457.38;5958713;30;20202;-75
2021/08/06 10:34:03;;;;;;;1.13;1.13;;;;;;;20.59;45.55;101459.00;6333772;27;20932;-75
2021/08/06 10:37:07;;;;;;;1.15;1.15;;;;;;;20.63;45.83;101451.78;6332972;28;20206;-75
2021/08/06 10:41:03;;;;;;;1.10;1.10;;;;;;;20.66;45.71;101437.41;6334047;28;20183;-75
2021/08/06 10:44:11;;;;;;;1.10;1.10;;;;;;;20.71;46.03;101440.19;6332965;28;20253;-75
2021/08/06 10:47:15;;;;;;;1.08;1.08;;;;;;;20.78;46.33;101451.88;6332405;28;20281;-76
2021/08/06 10:50:22;;;;;;;1.13;1.00;;;;;;;20.72;46.64;101441.88;6332467;28;20246;-75
2021/08/06 10:53:28;;;;;;;1.33;1.05;;;;;;;20.75;46.71;101441.31;6332157;28;20253;-75
2021/08/06 10:56:35;;;;;;;0.90;0.90;;;;;;;20.81;47.69;101443.03;6332373;28;20458;-76
2021/08/06 10:59:42;;;;;;;1.10;1.10;;;;;;;20.84;46.98;101445.25;6333206;28;20190;-75
2021/08/06 11:02:49;;;;;;;2.60;0.90;;;;;;;20.85;47.69;101440.56;6333016;28;20187;-75
2021/08/06 11:05:55;;;;;;;1.05;1.05;;;;;;;20.78;48.14;101435.25;6332670;28;20190;-76
2021/08/06 11:09:03;;;;;;;1.10;1.10;;;;;;;20.76;48.55;101433.84;6333039;28;20202;-76
2021/08/06 11:12:10;;;;;;;0.93;0.93;;;;;;;20.84;49.57;101427.78;6332002;28;20233;-76
2021/08/06 11:15:14;;;;;;;1.10;1.10;;;;;;;20.68;49.93;101435.19;6334081;28;20183;-75
2021/08/06 11:18:19;;;;;;;1.55;1.10;;;;;;;20.69;49.35;101431.31;6331905;28;20494;-75
2021/08/06 11:21:39;;;;;;;1.00;1.00;;;;;;;20.73;50.66;101432.44;6331978;28;20250;-76
2021/08/06 11:24:45;;;;;;;0.93;0.93;;;;;;;20.71;49.65;101434.66;6331862;28;20214;-76
2021/08/06 11:27:50;;;;;;;1.10;1.10;;;;;;;20.70;49.42;101432.16;6331544;28;20246;-76
2021/08/06 11:30:56;;;;;;;2.05;1.15;;;;;;;20.64;49.42;101427.69;6330870;28;20202;-76
2021/08/06 11:34:05;;;;;;;1.10;1.10;;;;;;;20.62;48.95;101430.72;6331147;28;20207;-76
2021/08/06 11:37:11;;;;;;;1.10;1.10;;;;;;;20.59;48.50;101425.72;6331252;28;20198;-76
2021/08/06 11:40:20;;;;;;;1.10;1.10;;;;;;;20.63;48.99;101426.84;6332445;28;20221;-76
2021/08/06 11:43:26;;;;;;;1.50;1.15;;;;;;;20.56;49.03;101420.72;6325031;28;20187;-76
2021/08/06 11:46:32;;;;;;;1.10;1.10;;;;;;;20.68;49.52;101418.56;6314255;28;20238;-76
2021/08/06 11:49:37;;;;;;;1.30;1.20;;;;;;;20.73;47.60;101415.81;6315107;28;20183;-76
2021/08/06 11:52:45;;;;;;;1.13;1.13;;;;;;;20.78;47.61;101410.28;6314297;28;20274;-76
2021/08/06 11:55:54;;;;;;;1.25;1.10;;;;;;;20.75;47.95;101408.03;6313935;28;20191;-76
2021/08/06 11:59:08;;;;;;;0.90;0.90;;;;;;;20.76;47.62;101395.84;6314924;28;20210;-76
2021/08/06 12:02:16;;;;;;;1.02;1.02;;;;;;;20.82;47.54;101397.56;6315196;28;20188;-76
2021/08/06 12:05:22;;;;;;;1.42;1.42;;;;;;;20.82;47.43;101394.78;6313551;28;20503;-76
2021/08/06 12:08:31;;;;;;;1.20;1.20;;;;;;;20.89;46.31;101403.69;6313544;28;20475;-76
2021/08/06 12:11:44;;;;;;;1.40;1.30;;;;;;;20.78;46.14;101396.41;6314779;28;20187;-76
2021/08/06 12:14:48;;;;;;;1.20;1.20;;;;;;;20.79;47.95;101397.25;6314011;28;20184;-77
2021/08/06 12:18:14;;;;;;;0.93;0.93;;;;;;;20.82;47.84;101394.78;6313944;28;20184;-76
2021/08/06 12:21:21;;;;;;;1.13;1.10;;;;;;;20.91;48.59;101395.91;6314606;28;20215;-76
2021/08/06 12:24:27;;;;;;;1.25;1.25;;;;;;;20.98;47.28;101396.47;6313635;28;20226;-76
2021/08/06 12:27:31;;;;;;;1.13;1.13;;;;;;;21.08;47.94;101399.31;6313365;28;20475;-76
2021/08/06 12:30:35;;;;;;;1.08;1.08;;;;;;;21.12;48.18;101397.69;6314495;28;20183;-76
2021/08/06 12:33:41;;;;;;;1.10;1.10;;;;;;;21.03;49.72;101404.00;6264101;28;20496;-76
2021/08/06 12:36:55;;;;;;;1.10;1.10;;;;;;;20.98;47.51;101402.03;6265011;28;20188;-76
2021/08/06 12:40:00;;;;;;;1.27;1.17;;;;;;;20.96;46.24;101400.63;6263549;28;20454;-76
2021/08/06 12:43:18;;;;;;;1.00;1.00;;;;;;;20.88;47.09;101395.59;6263582;28;20243;-76
2021/08/06 12:46:23;;;;;;;1.00;1.00;;;;;;;20.97;48.16;101394.84;6264373;28;20186;-76
2021/08/06 12:49:29;;;;;;;1.27;1.27;;;;;;;21.01;47.74;101384.84;6263107;28;20395;-76
2021/08/06 12:52:38;;;;;;;1.38;1.38;;;;;;;21.10;48.40;101377.72;6264399;28;20208;-77
2021/08/06 12:55:46;;;;;;;1.20;1.20;;;;;;;21.10;47.66;101394.34;6263390;28;20223;-76
2021/08/06 12:59:17;;;;;;;1.35;1.35;;;;;;;21.19;48.51;101383.53;6262793;28;20414;-76
2021/08/06 13:02:23;;;;;;;1.48;1.38;;;;;;;21.21;48.76;101393.25;6263358;28;20399;-76
2021/08/06 13:05:28;;;;;;;1.58;1.40;;;;;;;21.14;47.99;101384.38;6263263;28;20185;-76
2021/08/06 13:08:44;;;;;;;1.30;1.17;;;;;;;21.30;48.13;101399.09;6263864;28;20185;-76
2021/08/06 13:12:08;;;;;;;2.60;1.20;;;;;;;21.29;47.53;101391.06;6264312;28;20192;-77
2021/08/06 13:15:16;;;;;;;1.35;1.30;;;;;;;21.43;48.19;101397.75;6264662;28;20184;-77
2021/08/06 13:18:20;;;;;;;1.30;1.30;;;;;;;21.34;47.20;101385.53;6263740;28;20273;-76
2021/08/06 13:21:24;;;;;;;1.58;1.48;;;;;;;21.50;48.31;101392.75;6264128;28;20185;-76
2021/08/06 13:24:29;;;;;;;1.45;1.45;;;;;;;21.61;47.71;101388.88;6262924;28;20235;-76
2021/08/06 13:27:36;;;;;;;1.70;1.60;;;;;;;21.62;47.43;101373.91;6262926;28;20185;-76
2021/08/06 13:30:42;;;;;;;1.67;1.58;;;;;;;21.75;47.98;101390.00;6264193;28;20185;-76
2021/08/06 13:33:46;;;;;;;1.20;1.20;;;;;;;21.59;47.66;101391.09;6312250;28;20215;-76
2021/08/06 13:36:52;;;;;;;1.35;1.35;;;;;;;21.55;47.88;101389.97;6312968;28;20183;-76
2021/08/06 13:39:56;;;;;;;1.67;1.67;;;;;;;21.45;49.10;101392.75;6314174;28;20183;-78
2021/08/06 13:43:02;;;;;;;1.23;1.23;;;;;;;21.40;49.51;101387.19;6314577;28;20187;-78
2021/08/06 13:46:10;;;;;;;2.15;1.35;;;;;;;21.48;48.72;101387.47;6313994;28;20184;-78
2021/08/06 13:49:14;;;;;;;1.20;1.20;;;;;;;21.49;48.18;101380.00;6312176;28;20412;-78
2021/08/06 13:52:18;;;;;;;1.30;1.30;;;;;;;21.71;48.11;101372.22;6314366;28;20183;-76
2021/08/06 13:55:23;;;;;;;1.48;1.40;;;;;;;21.73;48.86;101381.09;6312826;28;20207;-78
2021/08/06 13:58:29;;;;;;;1.40;1.30;;;;;;;21.66;48.41;101366.66;6313859;28;20183;-78
2021/08/06 14:01:33;;;;;;;1.30;1.30;;;;;;;21.61;48.93;101377.78;6313411;28;20184;-75
2021/08/06 14:04:41;;;;;;;1.38;1.27;;;;;;;21.86;46.56;101375.00;6312451;28;20187;-76
2021/08/06 14:07:45;;;;;;;1.30;1.30;;;;;;;21.65;48.08;101364.97;6312751;28;20215;-79
2021/08/06 14:10:50;;;;;;;1.15;1.15;;;;;;;21.88;46.72;101372.78;6312324;28;20184;-78
2021/08/06 14:13:58;;;;;;;1.38;1.38;;;;;;;22.04;46.30;101368.88;6311203;28;20223;-78
2021/08/06 14:17:04;;;;;;;3.95;1.50;;;;;;;21.94;47.20;101365.28;6313535;28;20254;-78
2021/08/06 14:20:12;;;;;;;1.90;1.42;;;;;;;22.06;46.66;101363.88;6311598;28;20207;-77
2021/08/06 14:23:18;;;;;;;1.40;1.40;;;;;;;21.97;45.96;101360.00;6312629;28;20187;-77
2021/08/06 14:26:22;;;;;;;1.80;1.23;;;;;;;21.88;46.49;101361.66;6313124;28;20183;-78
2021/08/06 14:29:29;;;;;;;1.35;1.35;;;;;;;21.87;45.44;101354.47;6313288;28;20183;-77